ホノルル の空港の天気 - METARとTAF

ホノルル国際空港 ( PHNL / HNL ) - アメリカ ハワイ州ホノルル
飛行場実況気象(Metar)
観測時間06/20 17:53 HST (06/21 03:53 UTC)
風向・風速東北東 5m/s
視程10km以上
天気現象
少しの雲 雲底高度 760m
少しの雲 雲底高度 1190m
全天の4割程度の雲 雲底高度 1460m
気温30.6℃
湿度57%
気圧1014.3hPa
METARPHNL 210353Z 06009KT 10SM FEW025 FEW039 SCT048 31/21 A2996 RMK AO2 SLP143 T03060211
過去の天気等 Google飛行場航空写真 Wunderground天気予報

過去48時間のMETAR

飛行場予報(TAF)
発表時間: 6/20 17:15 HST (6/21 03:15 UTC)
予報対象時間: 20日17時 HST ~ 21日20時 HST
風向・風速東北東 6m/s
視程10km以上
少しの雲 雲底高度 760m
全天の4割程度の雲 雲底高度 1370m
20日19時 HST から
風向・風速不定 3m/s
視程10km以上
少しの雲 雲底高度 760m
全天の4割程度の雲 雲底高度 1370m
21日10時 HST から
風向・風速東北東 6m/s
視程10km以上
少しの雲 雲底高度 760m
全天の4割程度の雲 雲底高度 1370m
21日19時 HST から
風向・風速東北東 4m/s
視程10km以上
少しの雲 雲底高度 760m
全天の4割程度の雲 雲底高度 1370m
PHNL 210315Z 2103/2206 07011KT P6SM FEW025 SCT045
FM210500 VRB05KT P6SM FEW025 SCT045
FM212000 07012KT P6SM FEW025 SCT045
FM220500 06007KT P6SM FEW025 SCT045